AFL6079 UUEE-UWLL
Flight info
| Callsign | AFL6079 |
|---|---|
| Flight time | 1h 16m |
| Altitude | 37000 |
| Route | KOGOM3H KOGOM L94 EKPIR M864 IBROT T784 OTKOL T787 OKSUD T778 TERDI TERDI1E |
| Aircraft | B738/M-SDE2E3FGHIRWXY/LB1 |
Departure
| Time | 2026-04-30 17:41 |
|---|---|
| Airport | Sheremetyevo International Airport (UUEE) |
Arrival
| Time | 2026-04-30 18:57 |
|---|---|
| Airport | Ulyanovsk Baratayevka Airport (UWLL) |
| Time | Latitude | Longitude | Altitude | Speed | Heading |
|---|---|---|---|---|---|
| 2026-04-30 17:39 | 55.97306 | 36.96733 | 11218 ft | 280 kts | 14° |
| 2026-04-30 17:41 | 56.11446 | 37.08217 | 14429 ft | 331 kts | 71° |
| 2026-04-30 17:42 | 56.11768 | 37.16824 | 15303 ft | 358 kts | 91° |
| 2026-04-30 17:42 | 56.11101 | 37.30320 | 17480 ft | 367 kts | 92° |
| 2026-04-30 17:43 | 56.10666 | 37.39498 | 18798 ft | 374 kts | 91° |
| 2026-04-30 17:44 | 56.10057 | 37.53604 | 20631 ft | 382 kts | 91° |
| 2026-04-30 17:44 | 56.09445 | 37.67997 | 22401 ft | 390 kts | 90° |
| 2026-04-30 17:46 | 56.08363 | 37.92673 | 24839 ft | 405 kts | 90° |
| 2026-04-30 17:47 | 56.07433 | 38.13028 | 26431 ft | 417 kts | 90° |
| 2026-04-30 17:48 | 56.06436 | 38.34020 | 27886 ft | 428 kts | 91° |
| 2026-04-30 17:48 | 56.05652 | 38.50046 | 28897 ft | 436 kts | 91° |
| 2026-04-30 17:49 | 56.04545 | 38.71971 | 30036 ft | 449 kts | 92° |
| 2026-04-30 17:50 | 56.03370 | 38.94385 | 31177 ft | 454 kts | 92° |
| 2026-04-30 17:51 | 56.02459 | 39.11273 | 32017 ft | 456 kts | 93° |
| 2026-04-30 17:52 | 56.01521 | 39.28224 | 32873 ft | 458 kts | 94° |
| 2026-04-30 17:53 | 55.99898 | 39.56646 | 34170 ft | 462 kts | 94° |
| 2026-04-30 17:54 | 56.02488 | 39.78575 | 35021 ft | 456 kts | 68° |
| 2026-04-30 17:55 | 56.03275 | 40.01295 | 35793 ft | 462 kts | 88° |
| 2026-04-30 17:56 | 56.03494 | 40.24314 | 36526 ft | 464 kts | 88° |
| 2026-04-30 17:57 | 56.03677 | 40.39756 | 37013 ft | 465 kts | 88° |
| 2026-04-30 17:58 | 56.03849 | 40.57081 | 37213 ft | 467 kts | 88° |
| 2026-04-30 18:00 | 56.04168 | 41.03002 | 37211 ft | 458 kts | 89° |
| 2026-04-30 18:01 | 56.04276 | 41.31577 | 37211 ft | 463 kts | 89° |
| 2026-04-30 18:02 | 56.04319 | 41.66425 | 37199 ft | 470 kts | 90° |
| 2026-04-30 18:04 | 56.04264 | 42.01464 | 37191 ft | 469 kts | 90° |
| 2026-04-30 18:06 | 56.03922 | 42.47893 | 37174 ft | 464 kts | 98° |
| 2026-04-30 18:07 | 55.98338 | 42.68303 | 37188 ft | 461 kts | 126° |
| 2026-04-30 18:08 | 55.92743 | 42.82329 | 37184 ft | 462 kts | 125° |
| 2026-04-30 18:10 | 55.78041 | 43.20129 | 37175 ft | 467 kts | 121° |
| 2026-04-30 18:11 | 55.66860 | 43.55240 | 37168 ft | 467 kts | 121° |
| 2026-04-30 18:13 | 55.59606 | 43.80820 | 37171 ft | 467 kts | 103° |
| 2026-04-30 18:13 | 55.58933 | 43.96053 | 37151 ft | 467 kts | 92° |
| 2026-04-30 18:14 | 55.58751 | 44.09407 | 37155 ft | 467 kts | 92° |
| 2026-04-30 18:15 | 55.57379 | 44.26291 | 37159 ft | 463 kts | 115° |
| 2026-04-30 18:15 | 55.52127 | 44.40442 | 37141 ft | 460 kts | 128° |
| 2026-04-30 18:16 | 55.44529 | 44.58573 | 37146 ft | 461 kts | 128° |
| 2026-04-30 18:17 | 55.40708 | 44.67768 | 37143 ft | 462 kts | 128° |
| 2026-04-30 18:18 | 55.35018 | 44.81415 | 37134 ft | 463 kts | 128° |
| 2026-04-30 18:18 | 55.31199 | 44.90528 | 37046 ft | 465 kts | 128° |
| 2026-04-30 18:18 | 55.29265 | 44.95127 | 36476 ft | 470 kts | 128° |
| 2026-04-30 18:19 | 55.27324 | 44.99736 | 35929 ft | 467 kts | 128° |
| 2026-04-30 18:19 | 55.25388 | 45.04324 | 35284 ft | 468 kts | 129° |
| 2026-04-30 18:19 | 55.23447 | 45.08915 | 34621 ft | 469 kts | 129° |
| 2026-04-30 18:19 | 55.21515 | 45.13479 | 34172 ft | 465 kts | 129° |
| 2026-04-30 18:20 | 55.19592 | 45.18013 | 33606 ft | 461 kts | 129° |
| 2026-04-30 18:20 | 55.17691 | 45.22488 | 33101 ft | 456 kts | 129° |
| 2026-04-30 18:20 | 55.15807 | 45.26914 | 32641 ft | 451 kts | 129° |
| 2026-04-30 18:20 | 55.13968 | 45.31227 | 32189 ft | 445 kts | 129° |
| 2026-04-30 18:21 | 55.12124 | 45.35542 | 31751 ft | 440 kts | 129° |
| 2026-04-30 18:21 | 55.10297 | 45.39809 | 31296 ft | 435 kts | 130° |
| 2026-04-30 18:21 | 55.08489 | 45.44025 | 30862 ft | 431 kts | 130° |
| 2026-04-30 18:21 | 55.06700 | 45.48191 | 30432 ft | 426 kts | 130° |
| 2026-04-30 18:22 | 55.04924 | 45.52318 | 29960 ft | 422 kts | 130° |
| 2026-04-30 18:22 | 55.01439 | 45.60399 | 28990 ft | 410 kts | 130° |
| 2026-04-30 18:22 | 54.99739 | 45.64334 | 28584 ft | 403 kts | 131° |
| 2026-04-30 18:23 | 54.98087 | 45.68151 | 28151 ft | 397 kts | 131° |
| 2026-04-30 18:23 | 54.96430 | 45.71972 | 27728 ft | 392 kts | 132° |
| 2026-04-30 18:23 | 54.94794 | 45.75738 | 27279 ft | 388 kts | 132° |
| 2026-04-30 18:23 | 54.93187 | 45.79433 | 27135 ft | 376 kts | 133° |
| 2026-04-30 18:24 | 54.90137 | 45.86443 | 27104 ft | 350 kts | 133° |
| 2026-04-30 18:24 | 54.88696 | 45.89744 | 27099 ft | 337 kts | 133° |
| 2026-04-30 18:24 | 54.87307 | 45.92921 | 27102 ft | 324 kts | 134° |
| 2026-04-30 18:25 | 54.86025 | 45.96071 | 27104 ft | 315 kts | 128° |
| 2026-04-30 18:25 | 54.83055 | 46.00677 | 26847 ft | 275 kts | 160° |
| 2026-04-30 18:25 | 54.81314 | 46.02029 | 26454 ft | 275 kts | 162° |
| 2026-04-30 18:26 | 54.77747 | 46.04667 | 25488 ft | 283 kts | 163° |
| 2026-04-30 18:26 | 54.75909 | 46.06029 | 24516 ft | 303 kts | 163° |
| 2026-04-30 18:26 | 54.73884 | 46.07547 | 23301 ft | 329 kts | 163° |
| 2026-04-30 18:27 | 54.69630 | 46.10783 | 22036 ft | 334 kts | 163° |
| 2026-04-30 18:27 | 54.67502 | 46.12401 | 21593 ft | 331 kts | 163° |
| 2026-04-30 18:28 | 54.63299 | 46.15578 | 20648 ft | 328 kts | 162° |
| 2026-04-30 18:28 | 54.61218 | 46.17138 | 20261 ft | 324 kts | 162° |
| 2026-04-30 18:28 | 54.57141 | 46.20180 | 19621 ft | 314 kts | 162° |
| 2026-04-30 18:29 | 54.55163 | 46.21650 | 19337 ft | 304 kts | 162° |
| 2026-04-30 18:29 | 54.49494 | 46.25845 | 18502 ft | 290 kts | 162° |
| 2026-04-30 18:30 | 54.46430 | 46.28063 | 18055 ft | 285 kts | 162° |
| 2026-04-30 18:30 | 54.42188 | 46.31050 | 17465 ft | 279 kts | 162° |
| 2026-04-30 18:31 | 54.40391 | 46.32301 | 17233 ft | 280 kts | 162° |
| 2026-04-30 18:31 | 54.36740 | 46.34810 | 16767 ft | 287 kts | 162° |
| 2026-04-30 18:32 | 54.33052 | 46.37315 | 16341 ft | 284 kts | 162° |
| 2026-04-30 18:32 | 54.31218 | 46.38551 | 16138 ft | 282 kts | 162° |
| 2026-04-30 18:32 | 54.27585 | 46.41000 | 15736 ft | 282 kts | 162° |
| 2026-04-30 18:33 | 54.25752 | 46.42232 | 15481 ft | 283 kts | 162° |
| 2026-04-30 18:33 | 54.22087 | 46.44677 | 14964 ft | 282 kts | 162° |
| 2026-04-30 18:33 | 54.20253 | 46.45892 | 14713 ft | 282 kts | 162° |
| 2026-04-30 18:34 | 54.18417 | 46.47103 | 14458 ft | 283 kts | 162° |
| 2026-04-30 18:34 | 54.14763 | 46.49490 | 13957 ft | 283 kts | 162° |
| 2026-04-30 18:34 | 54.12911 | 46.50689 | 13683 ft | 284 kts | 162° |
| 2026-04-30 18:35 | 54.11178 | 46.52341 | 13380 ft | 291 kts | 142° |
| 2026-04-30 18:35 | 54.09804 | 46.54897 | 13143 ft | 291 kts | 134° |
| 2026-04-30 18:35 | 54.08536 | 46.57565 | 12860 ft | 288 kts | 133° |
| 2026-04-30 18:36 | 54.06079 | 46.62808 | 12312 ft | 282 kts | 133° |
| 2026-04-30 18:36 | 54.04853 | 46.65419 | 12043 ft | 280 kts | 132° |
| 2026-04-30 18:36 | 54.02419 | 46.70559 | 11515 ft | 277 kts | 132° |
| 2026-04-30 18:37 | 54.01202 | 46.73104 | 11260 ft | 277 kts | 132° |
| 2026-04-30 18:37 | 54.00000 | 46.75600 | 11001 ft | 276 kts | 132° |
| 2026-04-30 18:37 | 53.98780 | 46.78114 | 10743 ft | 275 kts | 132° |
| 2026-04-30 18:37 | 53.97557 | 46.80617 | 10491 ft | 274 kts | 132° |
| 2026-04-30 18:38 | 53.96730 | 46.82298 | 10322 ft | 274 kts | 132° |
| 2026-04-30 18:38 | 53.95105 | 46.85577 | 9992 ft | 273 kts | 132° |
| 2026-04-30 18:38 | 53.93875 | 46.88037 | 9717 ft | 272 kts | 132° |
| 2026-04-30 18:38 | 53.92645 | 46.90479 | 9446 ft | 272 kts | 132° |
| 2026-04-30 18:39 | 53.91412 | 46.92912 | 9167 ft | 272 kts | 132° |
| 2026-04-30 18:39 | 53.90177 | 46.95336 | 8896 ft | 271 kts | 132° |
| 2026-04-30 18:39 | 53.89359 | 46.96934 | 8722 ft | 271 kts | 132° |
| 2026-04-30 18:39 | 53.87720 | 47.00125 | 8359 ft | 270 kts | 132° |
| 2026-04-30 18:40 | 53.86487 | 47.02513 | 8141 ft | 267 kts | 132° |
| 2026-04-30 18:40 | 53.85261 | 47.04870 | 8090 ft | 269 kts | 132° |
| 2026-04-30 18:40 | 53.84074 | 47.07323 | 8081 ft | 269 kts | 121° |
| 2026-04-30 18:40 | 53.83533 | 47.10317 | 8097 ft | 269 kts | 94° |
| 2026-04-30 18:41 | 53.83895 | 47.13428 | 8102 ft | 275 kts | 66° |
| 2026-04-30 18:41 | 53.84964 | 47.16146 | 8094 ft | 280 kts | 54° |
| 2026-04-30 18:41 | 53.86186 | 47.18729 | 8096 ft | 281 kts | 53° |
| 2026-04-30 18:41 | 53.87007 | 47.20431 | 8096 ft | 282 kts | 53° |
| 2026-04-30 18:42 | 53.88252 | 47.23003 | 8083 ft | 282 kts | 53° |
| 2026-04-30 18:42 | 53.90740 | 47.28123 | 8082 ft | 280 kts | 52° |
| 2026-04-30 18:42 | 53.91979 | 47.30670 | 8075 ft | 279 kts | 52° |
| 2026-04-30 18:45 | 54.04223 | 47.56105 | 7206 ft | 274 kts | 52° |
| 2026-04-30 18:45 | 54.05415 | 47.58617 | 6940 ft | 272 kts | 52° |
| 2026-04-30 18:45 | 54.06596 | 47.61118 | 6666 ft | 269 kts | 52° |
| 2026-04-30 18:46 | 54.07765 | 47.63607 | 6395 ft | 267 kts | 52° |
| 2026-04-30 18:46 | 54.08922 | 47.66081 | 6098 ft | 265 kts | 52° |
| 2026-04-30 18:46 | 54.10052 | 47.68509 | 5792 ft | 264 kts | 52° |
| 2026-04-30 18:46 | 54.11202 | 47.70948 | 5502 ft | 263 kts | 48° |
| 2026-04-30 18:47 | 54.12689 | 47.72696 | 5184 ft | 264 kts | 19° |
| 2026-04-30 18:47 | 54.14509 | 47.73181 | 5152 ft | 268 kts | 4° |
| 2026-04-30 18:47 | 54.16383 | 47.73335 | 5103 ft | 269 kts | 3° |
| 2026-04-30 18:47 | 54.18240 | 47.73450 | 5090 ft | 265 kts | 3° |
| 2026-04-30 18:48 | 54.20076 | 47.73554 | 5082 ft | 263 kts | 3° |
| 2026-04-30 18:48 | 54.21896 | 47.73649 | 5081 ft | 258 kts | 3° |
| 2026-04-30 18:48 | 54.23650 | 47.73736 | 5073 ft | 246 kts | 2° |
| 2026-04-30 18:48 | 54.25328 | 47.73845 | 5078 ft | 238 kts | 2° |
| 2026-04-30 18:49 | 54.26962 | 47.74125 | 5078 ft | 235 kts | 18° |
| 2026-04-30 18:49 | 54.28298 | 47.75562 | 5078 ft | 232 kts | 49° |
| 2026-04-30 18:49 | 54.29066 | 47.78068 | 4604 ft | 243 kts | 81° |
| 2026-04-30 18:49 | 54.28936 | 47.80866 | 4420 ft | 235 kts | 112° |
| 2026-04-30 18:50 | 54.27995 | 47.83094 | 4224 ft | 231 kts | 139° |
| 2026-04-30 18:50 | 54.26744 | 47.84792 | 4000 ft | 229 kts | 142° |
| 2026-04-30 18:50 | 54.25469 | 47.86387 | 3801 ft | 225 kts | 142° |
| 2026-04-30 18:50 | 54.24202 | 47.87940 | 3579 ft | 223 kts | 143° |
| 2026-04-30 18:51 | 54.22944 | 47.89471 | 3352 ft | 221 kts | 143° |
| 2026-04-30 18:51 | 54.21696 | 47.90980 | 3033 ft | 223 kts | 142° |
| 2026-04-30 18:51 | 54.20422 | 47.92506 | 2898 ft | 216 kts | 143° |
| 2026-04-30 18:51 | 54.19217 | 47.93938 | 2925 ft | 208 kts | 143° |
| 2026-04-30 18:52 | 54.18036 | 47.95335 | 2975 ft | 205 kts | 143° |
| 2026-04-30 18:52 | 54.16876 | 47.96706 | 2992 ft | 206 kts | 143° |
| 2026-04-30 18:52 | 54.15692 | 47.98104 | 2999 ft | 207 kts | 143° |
| 2026-04-30 18:52 | 54.14520 | 47.99493 | 2890 ft | 204 kts | 141° |
| 2026-04-30 18:53 | 54.13609 | 48.01282 | 2573 ft | 200 kts | 108° |
| 2026-04-30 18:53 | 54.13519 | 48.03576 | 2282 ft | 194 kts | 71° |
| 2026-04-30 18:53 | 54.14031 | 48.05698 | 2170 ft | 195 kts | 63° |
| 2026-04-30 18:53 | 54.14606 | 48.07786 | 2145 ft | 193 kts | 63° |
| 2026-04-30 18:54 | 54.15211 | 48.09808 | 2104 ft | 191 kts | 53° |
| 2026-04-30 18:54 | 54.16275 | 48.11082 | 2115 ft | 190 kts | 22° |
| 2026-04-30 18:54 | 54.17434 | 48.12155 | 2094 ft | 186 kts | 37° |
| 2026-04-30 18:54 | 54.18446 | 48.13368 | 2077 ft | 169 kts | 32° |
| 2026-04-30 18:55 | 54.19405 | 48.14370 | 2011 ft | 157 kts | 32° |
| 2026-04-30 18:55 | 54.21191 | 48.16283 | 1607 ft | 147 kts | 32° |
| 2026-04-30 18:55 | 54.22049 | 48.17208 | 1398 ft | 144 kts | 32° |
| 2026-04-30 18:56 | 54.23770 | 48.19063 | 1041 ft | 147 kts | 32° |
| 2026-04-30 18:56 | 54.24618 | 48.19977 | 807 ft | 142 kts | 32° |
| 2026-04-30 18:56 | 54.25449 | 48.20872 | 620 ft | 141 kts | 31° |
| 2026-04-30 18:57 | 54.26994 | 48.22524 | 423 ft | 100 kts | 32° |
| 2026-04-30 18:57 | 54.27517 | 48.23084 | 410 ft | 81 kts | 32° |
| 2026-04-30 18:57 | 54.27893 | 48.23490 | 392 ft | 49 kts | 32° |
| 2026-04-30 18:58 | 54.28214 | 48.23842 | 392 ft | 22 kts | 32° |
| 2026-04-30 18:58 | 54.28273 | 48.23892 | 391 ft | 6 kts | 5° |
| 2026-04-30 18:58 | 54.28307 | 48.23848 | 391 ft | 7 kts | 301° |
| 2026-04-30 18:59 | 54.28350 | 48.23728 | 387 ft | 3 kts | 301° |
| 2026-04-30 19:00 | 54.28416 | 48.23549 | 381 ft | 11 kts | 302° |
| 2026-04-30 19:00 | 54.28440 | 48.23486 | 377 ft | 2 kts | 302° |
| 2026-04-30 19:00 | 54.28479 | 48.23371 | 374 ft | 8 kts | 298° |
| 2026-04-30 19:01 | 54.28552 | 48.23150 | 370 ft | 13 kts | 302° |
| 2026-04-30 19:01 | 54.28586 | 48.23084 | 368 ft | 7 kts | 343° |
| 2026-04-30 19:02 | 54.28621 | 48.23111 | 369 ft | 1 kts | 37° |
| 2026-04-30 19:02 | 54.28641 | 48.23164 | 368 ft | 3 kts | 106° |
| 2026-04-30 19:03 | 54.28622 | 48.23215 | 367 ft | 0 kts | 121° |